createdAt,value
2018-06-11T00:01:29.215Z,12.93
2018-06-11T00:03:58.423Z,11.90
2018-06-11T00:06:27.647Z,12.37
2018-06-11T00:08:57.073Z,11.70
2018-06-11T00:11:26.322Z,11.80
2018-06-11T00:13:55.511Z,11.43
2018-06-11T00:16:24.859Z,13.30
2018-06-11T00:18:54.210Z,11.30
2018-06-11T00:21:23.447Z,12.00
2018-06-11T00:23:52.847Z,12.83
2018-06-11T00:26:21.706Z,16.00
2018-06-11T00:28:50.704Z,13.23
2018-06-11T00:31:19.826Z,22.97
2018-06-11T00:33:48.823Z,17.47
2018-06-11T00:36:18.075Z,13.43
2018-06-11T00:38:47.267Z,15.23
2018-06-11T00:41:16.475Z,13.90
2018-06-11T00:43:45.613Z,14.07
2018-06-11T00:46:14.904Z,13.93
2018-06-11T00:48:44.128Z,14.27
2018-06-11T00:51:13.606Z,13.27
2018-06-11T00:53:42.761Z,13.57
2018-06-11T00:56:12.037Z,13.40
2018-06-11T00:58:41.676Z,12.93
2018-06-11T01:01:10.866Z,12.70
2018-06-11T01:03:40.103Z,11.70
2018-06-11T01:06:09.465Z,11.17
2018-06-11T01:08:38.984Z,12.57
2018-06-11T01:11:08.633Z,12.63
2018-06-11T01:13:38.038Z,11.93
2018-06-11T01:16:07.129Z,13.00
2018-06-11T01:18:36.451Z,12.97
2018-06-11T01:21:05.733Z,11.50
2018-06-11T01:23:35.208Z,11.90
2018-06-11T01:26:04.683Z,12.03
2018-06-11T01:28:34.000Z,11.77
2018-06-11T01:31:03.472Z,11.57
2018-06-11T01:33:32.831Z,12.13
2018-06-11T01:36:02.131Z,11.40
2018-06-11T01:38:31.304Z,13.67
2018-06-11T01:41:00.489Z,11.60
2018-06-11T01:43:29.947Z,12.20
2018-06-11T01:45:59.486Z,11.67
2018-06-11T01:48:28.822Z,10.93
2018-06-11T01:50:58.129Z,11.33
2018-06-11T01:53:27.469Z,10.63
2018-06-11T01:55:56.751Z,11.07
2018-06-11T01:58:26.088Z,11.27
2018-06-11T02:00:55.470Z,11.00
2018-06-11T02:03:24.635Z,10.63
2018-06-11T02:05:54.123Z,11.40
2018-06-11T02:08:23.379Z,11.53
2018-06-11T02:10:52.795Z,10.93
2018-06-11T02:13:22.184Z,12.03
2018-06-11T02:15:51.350Z,11.40
2018-06-11T02:18:20.879Z,11.80
2018-06-11T02:20:50.079Z,11.77
2018-06-11T02:23:19.419Z,11.50
2018-06-11T02:25:48.843Z,12.30
2018-06-11T02:28:17.939Z,11.50
2018-06-11T02:30:47.159Z,11.80
2018-06-11T02:33:16.375Z,12.10
2018-06-11T02:35:45.600Z,12.03
2018-06-11T02:38:14.804Z,12.13
2018-06-11T02:40:44.480Z,13.67
2018-06-11T02:43:13.715Z,14.03
2018-06-11T02:45:43.090Z,15.27
2018-06-11T02:48:11.766Z,14.97
2018-06-11T02:50:41.305Z,17.20
2018-06-11T02:53:09.935Z,17.73
2018-06-11T02:55:38.848Z,17.40
2018-06-11T02:58:08.044Z,16.40
2018-06-11T03:00:37.392Z,16.33
2018-06-11T03:03:06.768Z,16.77
2018-06-11T03:05:35.993Z,17.17
2018-06-11T03:08:05.111Z,16.00
2018-06-11T03:10:34.636Z,17.20
2018-06-11T03:13:04.069Z,14.60
2018-06-11T03:15:33.563Z,15.17
2018-06-11T03:18:02.695Z,16.53
2018-06-11T03:20:32.055Z,16.23
2018-06-11T03:23:01.779Z,17.47
2018-06-11T03:25:31.027Z,16.83
2018-06-11T03:28:00.503Z,16.63
2018-06-11T03:30:29.892Z,17.27
2018-06-11T03:32:59.464Z,15.47
2018-06-11T03:35:28.594Z,14.57
2018-06-11T03:37:57.991Z,14.93
2018-06-11T03:40:27.230Z,15.67
2018-06-11T03:42:56.544Z,28.87
2018-06-11T03:45:25.839Z,25.03
2018-06-11T03:47:55.198Z,22.03
2018-06-11T03:50:24.646Z,18.00
2018-06-11T03:52:53.991Z,16.97
2018-06-11T03:55:23.245Z,15.63
2018-06-11T03:57:52.547Z,17.03
2018-06-11T04:00:21.794Z,16.80
2018-06-11T04:02:51.152Z,17.80
2018-06-11T04:05:20.280Z,19.00
2018-06-11T04:07:49.447Z,18.67
2018-06-11T04:10:18.631Z,14.03
2018-06-11T04:12:47.957Z,13.30
2018-06-11T04:15:17.280Z,13.00
2018-06-11T04:17:46.647Z,13.33
2018-06-11T04:20:16.150Z,16.63
2018-06-11T04:22:45.864Z,19.67
2018-06-11T04:25:14.891Z,21.93
2018-06-11T04:27:44.951Z,16.40
2018-06-11T04:30:14.212Z,15.17
2018-06-11T04:32:43.632Z,22.37
2018-06-11T04:35:13.027Z,20.83
2018-06-11T04:37:42.300Z,20.37
2018-06-11T04:40:11.935Z,22.70
2018-06-11T04:42:41.364Z,21.30
2018-06-11T04:45:10.449Z,17.87
2018-06-11T04:47:39.901Z,18.93
2018-06-11T04:50:09.027Z,19.77
2018-06-11T04:52:38.223Z,19.23
2018-06-11T04:55:07.507Z,19.83
2018-06-11T04:57:36.926Z,19.43
2018-06-11T05:00:06.232Z,20.00
2018-06-11T05:02:35.771Z,20.53
2018-06-11T05:05:04.915Z,20.17
2018-06-11T05:07:34.364Z,19.93
2018-06-11T05:10:04.080Z,20.57
2018-06-11T05:12:33.307Z,19.47
2018-06-11T05:15:03.116Z,17.83
2018-06-11T05:17:32.660Z,18.03
2018-06-11T05:20:01.960Z,18.33
2018-06-11T05:22:31.472Z,17.70
2018-06-11T05:25:01.005Z,15.27
2018-06-11T05:27:30.100Z,15.63
2018-06-11T05:29:59.567Z,15.00
2018-06-11T05:32:28.681Z,14.70
2018-06-11T05:34:57.844Z,13.73
2018-06-11T05:37:27.227Z,13.63
2018-06-11T05:39:56.444Z,11.53
2018-06-11T05:42:25.656Z,10.13
2018-06-11T05:44:54.804Z,10.03
2018-06-11T05:47:23.984Z,6.87
2018-06-11T05:49:53.684Z,7.07
2018-06-11T05:52:22.954Z,8.23
2018-06-11T05:54:52.413Z,6.73
2018-06-11T05:57:21.740Z,5.90
2018-06-11T05:59:51.006Z,5.87
2018-06-11T06:02:20.269Z,6.07
2018-06-11T06:04:49.675Z,6.47
2018-06-11T06:07:19.072Z,5.33
2018-06-11T06:09:48.374Z,6.03
2018-06-11T06:12:17.672Z,5.60
2018-06-11T06:14:47.381Z,5.90
2018-06-11T06:17:16.791Z,5.08
2018-06-11T06:19:46.040Z,5.77
2018-06-11T06:22:15.719Z,5.50
2018-06-11T06:24:45.083Z,6.05
2018-06-11T06:27:14.283Z,6.25
2018-06-11T06:29:43.988Z,5.60
2018-06-11T06:32:13.245Z,5.25
2018-06-11T06:34:42.644Z,5.20
2018-06-11T06:37:11.891Z,5.05
2018-06-11T06:39:41.080Z,5.62
2018-06-11T06:42:10.393Z,5.60
2018-06-11T06:44:39.667Z,5.40
2018-06-11T06:47:08.940Z,5.10
2018-06-11T06:49:38.154Z,5.50
2018-06-11T06:52:07.687Z,5.37
2018-06-11T06:54:37.160Z,5.30
2018-06-11T06:57:06.663Z,5.42
2018-06-11T06:59:35.974Z,6.00
2018-06-11T07:02:05.190Z,5.12
2018-06-11T07:04:34.548Z,5.42
2018-06-11T07:07:04.092Z,6.28
2018-06-11T07:09:33.199Z,5.37
2018-06-11T07:12:02.674Z,5.33
2018-06-11T07:14:31.780Z,5.72
2018-06-11T07:17:01.403Z,6.08
2018-06-11T07:19:30.966Z,6.05
2018-06-11T07:22:00.391Z,5.65
2018-06-11T07:24:29.508Z,6.20
2018-06-11T07:26:58.737Z,5.90
2018-06-11T07:29:28.055Z,6.08
2018-06-11T07:31:57.284Z,6.05
2018-06-11T07:34:26.758Z,6.22
2018-06-11T07:36:56.095Z,6.12
2018-06-11T07:39:24.996Z,6.12
2018-06-11T07:41:54.258Z,6.10
2018-06-11T07:44:23.680Z,6.08
2018-06-11T07:46:52.866Z,6.10
2018-06-11T07:49:22.218Z,6.10
2018-06-11T07:51:51.700Z,6.87
2018-06-11T07:54:20.756Z,6.40
2018-06-11T07:56:50.191Z,6.87
2018-06-11T07:59:19.835Z,7.08
2018-06-11T08:01:49.105Z,7.12
2018-06-11T08:04:18.287Z,7.50
2018-06-11T08:06:48.047Z,6.97
2018-06-11T08:09:17.631Z,7.25
2018-06-11T08:11:46.794Z,6.80
2018-06-11T08:14:16.387Z,6.85
2018-06-11T08:16:45.851Z,6.50
2018-06-11T08:19:14.598Z,6.20
2018-06-11T08:21:43.694Z,6.60
2018-06-11T08:24:12.946Z,6.20
2018-06-11T08:26:41.743Z,6.55
2018-06-11T08:29:11.224Z,6.00
2018-06-11T08:31:40.656Z,6.47
2018-06-11T08:34:09.966Z,6.33
2018-06-11T08:36:39.274Z,6.70
2018-06-11T08:39:09.160Z,6.37
2018-06-11T08:41:38.415Z,6.53
2018-06-11T08:44:07.674Z,6.87
2018-06-11T08:46:36.927Z,6.42
2018-06-11T08:49:06.025Z,6.50
2018-06-11T08:51:35.301Z,6.50
2018-06-11T08:54:04.683Z,6.60
2018-06-11T08:56:33.837Z,6.47
2018-06-11T08:59:03.164Z,7.05
2018-06-11T09:01:32.373Z,7.03
2018-06-11T09:04:01.851Z,6.58
2018-06-11T09:06:31.140Z,6.90
2018-06-11T09:09:00.478Z,6.75
2018-06-11T09:11:30.041Z,7.67
2018-06-11T09:13:59.347Z,7.45
2018-06-11T09:16:28.499Z,7.30
2018-06-11T09:18:57.962Z,7.67
2018-06-11T09:21:27.308Z,6.90
2018-06-11T09:23:56.486Z,7.65
2018-06-11T09:26:25.721Z,7.12
2018-06-11T09:28:54.979Z,7.00
2018-06-11T09:31:24.463Z,7.70
2018-06-11T09:33:53.553Z,7.03
2018-06-11T09:36:22.870Z,6.42
2018-06-11T09:38:52.281Z,6.78
2018-06-11T09:41:21.630Z,6.92
2018-06-11T09:43:51.473Z,7.50
2018-06-11T09:46:20.987Z,7.17
2018-06-11T09:48:50.198Z,6.58
2018-06-11T09:51:19.593Z,6.42
2018-06-11T09:53:48.806Z,6.45
2018-06-11T09:56:17.887Z,6.72
2018-06-11T09:58:47.304Z,7.75
2018-06-11T10:01:16.637Z,7.92
2018-06-11T10:03:45.921Z,8.28
2018-06-11T10:06:15.272Z,7.75
2018-06-11T10:08:44.540Z,8.30
2018-06-11T10:11:13.832Z,7.17
2018-06-11T10:13:43.041Z,6.78
2018-06-11T10:16:12.319Z,7.37
2018-06-11T10:18:41.680Z,6.47
2018-06-11T10:21:11.455Z,6.20
2018-06-11T10:23:40.784Z,6.67
2018-06-11T10:26:09.988Z,6.67
2018-06-11T10:28:39.183Z,6.75
2018-06-11T10:31:08.312Z,6.50
2018-06-11T10:33:37.902Z,7.40
2018-06-11T10:36:07.190Z,7.00
2018-06-11T10:38:36.321Z,5.83
2018-06-11T10:41:05.107Z,5.80
2018-06-11T10:43:34.463Z,5.78
2018-06-11T10:46:03.911Z,5.87
2018-06-11T10:48:33.064Z,5.67
2018-06-11T10:51:02.424Z,5.92
2018-06-11T10:53:31.747Z,6.87
2018-06-11T10:56:00.936Z,6.83
2018-06-11T10:58:30.265Z,7.70
2018-06-11T11:00:59.609Z,6.67
2018-06-11T11:03:29.070Z,6.75
2018-06-11T11:05:58.256Z,6.35
2018-06-11T11:08:27.367Z,6.12
2018-06-11T11:10:56.411Z,5.55
2018-06-11T11:13:26.089Z,6.17
2018-06-11T11:15:55.138Z,6.53
2018-06-11T11:18:24.451Z,6.70
2018-06-11T11:20:53.632Z,6.47
2018-06-11T11:23:22.923Z,7.22
2018-06-11T11:25:52.564Z,6.60
2018-06-11T11:28:22.155Z,7.00
2018-06-11T11:30:51.298Z,7.08
2018-06-11T11:33:20.725Z,7.37
2018-06-11T11:35:50.204Z,6.97
2018-06-11T11:38:19.390Z,6.58
2018-06-11T11:40:48.839Z,6.83
2018-06-11T11:43:18.177Z,6.90
2018-06-11T11:45:47.376Z,6.72
2018-06-11T11:48:16.563Z,6.85
2018-06-11T11:50:45.759Z,6.78
2018-06-11T11:53:15.495Z,6.20
2018-06-11T11:55:44.767Z,6.40
2018-06-11T11:58:14.175Z,6.37
2018-06-11T12:00:43.607Z,6.62
2018-06-11T12:03:12.307Z,5.75
2018-06-11T12:05:41.758Z,5.90
2018-06-11T12:08:11.200Z,5.75
2018-06-11T12:10:40.512Z,5.47
2018-06-11T12:13:10.079Z,5.55
2018-06-11T12:15:39.510Z,6.95
2018-06-11T12:18:08.888Z,7.67
2018-06-11T12:20:38.346Z,7.10
2018-06-11T12:23:08.000Z,7.72
2018-06-11T12:25:37.256Z,7.83
2018-06-11T12:28:06.861Z,7.35
2018-06-11T12:30:36.345Z,7.22
2018-06-11T12:33:05.995Z,6.90
2018-06-11T12:35:35.759Z,7.30
2018-06-11T12:38:05.444Z,7.40
2018-06-11T12:40:35.102Z,8.08
2018-06-11T12:43:04.661Z,8.00
2018-06-11T12:45:33.843Z,8.08
2018-06-11T12:48:03.145Z,7.97
2018-06-11T12:50:32.929Z,8.28
2018-06-11T12:53:02.292Z,8.15
2018-06-11T12:55:31.765Z,9.65
2018-06-11T12:58:01.581Z,8.80
2018-06-11T13:00:30.950Z,8.73
2018-06-11T13:03:00.396Z,8.60
2018-06-11T13:05:29.828Z,8.83
2018-06-11T13:07:59.313Z,8.83
2018-06-11T13:10:29.144Z,8.08
2018-06-11T13:12:58.676Z,8.15
2018-06-11T13:15:28.358Z,7.75
2018-06-11T13:17:57.895Z,8.20
2018-06-11T13:20:27.066Z,7.22
2018-06-11T13:22:56.593Z,7.95
2018-06-11T13:25:26.267Z,8.10
2018-06-11T13:27:55.705Z,7.85
2018-06-11T13:30:25.445Z,8.15
2018-06-11T13:32:54.836Z,8.00
2018-06-11T13:35:24.168Z,7.20
2018-06-11T13:37:53.745Z,7.37
2018-06-11T13:40:23.225Z,7.30
2018-06-11T13:42:52.849Z,7.30
2018-06-11T13:45:22.264Z,7.42
2018-06-11T13:47:51.699Z,6.87
2018-06-11T13:50:21.165Z,6.90
2018-06-11T13:52:50.055Z,6.45
2018-06-11T13:55:19.416Z,6.15
2018-06-11T13:57:49.237Z,5.87
2018-06-11T14:00:18.672Z,7.08
2018-06-11T14:02:48.260Z,6.50
2018-06-11T14:05:17.649Z,7.12
2018-06-11T14:07:47.166Z,7.58
2018-06-11T14:10:16.680Z,8.10
2018-06-11T14:12:46.058Z,8.93
2018-06-11T14:15:15.481Z,7.65
2018-06-11T14:17:44.975Z,7.47
2018-06-11T14:20:14.717Z,8.25
2018-06-11T14:22:44.185Z,8.38
2018-06-11T14:25:13.308Z,8.83
2018-06-11T14:27:42.743Z,8.68
2018-06-11T14:30:12.231Z,9.33
2018-06-11T14:32:41.494Z,7.55
2018-06-11T14:35:10.796Z,7.37
2018-06-11T14:37:40.447Z,7.30
2018-06-11T14:40:09.931Z,7.95
2018-06-11T14:42:39.718Z,8.23
2018-06-11T14:45:08.428Z,7.55
2018-06-11T14:47:37.753Z,7.47
2018-06-11T14:50:06.956Z,7.20
2018-06-11T14:52:36.615Z,7.00
2018-06-11T14:55:06.781Z,8.08
2018-06-11T14:57:36.222Z,7.70
2018-06-11T15:00:05.920Z,7.85
2018-06-11T15:02:35.350Z,7.25
2018-06-11T15:05:04.977Z,7.92
2018-06-11T15:07:34.310Z,6.87
2018-06-11T15:10:03.601Z,6.62
2018-06-11T15:12:33.465Z,6.15
2018-06-11T15:15:02.917Z,6.72
2018-06-11T15:17:32.112Z,7.25
2018-06-11T15:20:01.756Z,6.65
2018-06-11T15:22:31.249Z,7.45
2018-06-11T15:25:00.705Z,7.08
2018-06-11T15:27:30.153Z,6.80
2018-06-11T15:30:00.286Z,6.03
2018-06-11T15:32:29.901Z,5.30
2018-06-11T15:34:59.221Z,5.90
2018-06-11T15:37:28.540Z,6.62
2018-06-11T15:39:57.932Z,6.03
2018-06-11T15:42:27.344Z,6.28
2018-06-11T15:44:56.951Z,6.17
2018-06-11T15:47:26.373Z,6.33
2018-06-11T15:49:55.848Z,6.78
2018-06-11T15:52:25.152Z,6.70
2018-06-11T15:54:54.421Z,7.12
2018-06-11T15:57:24.151Z,7.58
2018-06-11T15:59:53.669Z,7.42
2018-06-11T16:02:23.370Z,7.53
2018-06-11T16:04:52.933Z,7.12
2018-06-11T16:07:22.202Z,6.37
2018-06-11T16:09:51.603Z,6.20
2018-06-11T16:12:20.985Z,6.50
2018-06-11T16:14:50.878Z,6.45
2018-06-11T16:17:20.391Z,6.90
2018-06-11T16:19:50.093Z,6.35
2018-06-11T16:22:19.077Z,7.58
2018-06-11T16:24:48.140Z,6.55
2018-06-11T16:27:17.492Z,7.35
2018-06-11T16:29:46.912Z,6.40
2018-06-11T16:32:16.376Z,6.53
2018-06-11T16:34:45.664Z,5.90
2018-06-11T16:37:15.177Z,6.47
2018-06-11T16:39:44.514Z,5.95
2018-06-11T16:42:14.109Z,6.35
2018-06-11T16:44:43.441Z,6.37
2018-06-11T16:47:12.760Z,5.70
2018-06-11T16:49:42.111Z,6.33
2018-06-11T16:52:12.575Z,6.78
2018-06-11T16:54:42.381Z,8.65
2018-06-11T16:57:11.796Z,9.20
2018-06-11T16:59:40.973Z,10.00
2018-06-11T17:02:10.501Z,10.35
2018-06-11T17:04:39.783Z,10.68
2018-06-11T17:07:09.175Z,9.48
2018-06-11T17:09:38.850Z,10.82
2018-06-11T17:12:08.250Z,10.85
2018-06-11T17:14:38.313Z,11.75
2018-06-11T17:17:07.911Z,12.33
2018-06-11T17:19:37.628Z,14.23
2018-06-11T17:22:07.133Z,12.82
2018-06-11T17:24:36.851Z,12.98
2018-06-11T17:27:05.792Z,13.32
2018-06-11T17:29:35.415Z,13.65
2018-06-11T17:32:05.077Z,13.83
2018-06-11T17:34:34.581Z,14.80
2018-06-11T17:37:04.259Z,13.75
2018-06-11T17:39:33.636Z,15.13
2018-06-11T17:42:03.099Z,14.80
2018-06-11T17:44:32.554Z,16.07
2018-06-11T17:47:01.884Z,15.23
2018-06-11T17:49:31.291Z,15.23
2018-06-11T17:52:00.693Z,13.48
2018-06-11T17:54:30.233Z,13.75
2018-06-11T17:57:00.638Z,14.10
2018-06-11T17:59:30.010Z,13.70
2018-06-11T18:01:59.028Z,14.13
2018-06-11T18:04:28.687Z,14.63
2018-06-11T18:06:58.437Z,16.60
2018-06-11T18:09:27.127Z,21.10
2018-06-11T18:11:56.035Z,23.10
2018-06-11T18:14:25.514Z,19.37
2018-06-11T18:16:55.176Z,20.95
2018-06-11T18:19:24.556Z,29.55
2018-06-11T18:21:53.893Z,20.73
2018-06-11T18:24:23.487Z,21.05
2018-06-11T18:26:53.290Z,19.77
2018-06-11T18:29:23.061Z,29.77
2018-06-11T18:31:52.456Z,39.67
2018-06-11T18:34:21.939Z,46.00
2018-06-11T18:36:51.601Z,21.23
2018-06-11T18:39:21.389Z,20.33
2018-06-11T18:41:50.904Z,18.17
2018-06-11T18:44:20.295Z,18.73
2018-06-11T18:46:49.830Z,20.80
2018-06-11T18:49:19.226Z,18.73
2018-06-11T18:51:48.935Z,18.13
2018-06-11T18:54:18.153Z,17.43
2018-06-11T18:56:47.784Z,17.67
2018-06-11T18:59:17.145Z,18.23
2018-06-11T19:01:46.634Z,18.03
2018-06-11T19:04:15.780Z,19.67
2018-06-11T19:06:45.264Z,28.70
2018-06-11T19:09:14.512Z,20.07
2018-06-11T19:11:43.704Z,22.83
2018-06-11T19:14:13.250Z,21.27
2018-06-11T19:16:42.751Z,20.43
2018-06-11T19:19:12.247Z,19.07
2018-06-11T19:21:41.740Z,24.30
2018-06-11T19:24:11.182Z,18.37
2018-06-11T19:26:40.870Z,17.37
2018-06-11T19:29:10.966Z,20.00
2018-06-11T19:31:40.487Z,20.27
2018-06-11T19:34:09.649Z,21.23
2018-06-11T19:36:38.986Z,23.40
2018-06-11T19:39:08.189Z,18.87
2018-06-11T19:41:37.848Z,19.47
2018-06-11T19:44:07.322Z,19.77
2018-06-11T19:46:36.605Z,25.33
2018-06-11T19:49:05.904Z,21.03
2018-06-11T19:51:35.205Z,21.20
2018-06-11T19:54:04.451Z,19.90
2018-06-11T19:56:33.678Z,19.60
2018-06-11T19:59:02.962Z,19.07
2018-06-11T20:01:32.584Z,17.93
2018-06-11T20:04:01.745Z,17.80
2018-06-11T20:06:31.107Z,16.83
2018-06-11T20:09:00.714Z,16.47
2018-06-11T20:11:30.107Z,17.27
2018-06-11T20:13:59.640Z,17.93
2018-06-11T20:16:29.604Z,18.27
2018-06-11T20:18:58.758Z,18.57
2018-06-11T20:21:28.246Z,17.57
2018-06-11T20:23:57.890Z,18.47
2018-06-11T20:26:26.543Z,19.33
2018-06-11T20:28:55.828Z,20.67
2018-06-11T20:31:25.453Z,21.93
2018-06-11T20:33:55.180Z,22.10
2018-06-11T20:36:25.619Z,20.33
2018-06-11T20:38:55.327Z,20.17
2018-06-11T20:41:24.739Z,21.43
2018-06-11T20:43:54.434Z,18.43
2018-06-11T20:46:24.087Z,17.40
2018-06-11T20:48:53.516Z,18.27
2018-06-11T20:51:23.170Z,18.73
2018-06-11T20:53:52.499Z,19.93
2018-06-11T20:56:22.336Z,22.77
2018-06-11T20:58:51.869Z,20.63
2018-06-11T21:01:21.448Z,22.80
2018-06-11T21:03:50.600Z,27.93
2018-06-11T21:06:19.804Z,21.87
2018-06-11T21:08:49.074Z,20.23
2018-06-11T21:11:18.328Z,19.33
2018-06-11T21:13:47.691Z,19.70
2018-06-11T21:16:17.153Z,19.50
2018-06-11T21:18:46.551Z,18.77
2018-06-11T21:21:16.220Z,19.00
2018-06-11T21:23:45.821Z,19.60
2018-06-11T21:26:15.359Z,19.30
2018-06-11T21:28:44.789Z,20.37
2018-06-11T21:31:13.913Z,19.80
2018-06-11T21:33:43.111Z,20.27
2018-06-11T21:36:12.319Z,17.80
2018-06-11T21:38:41.717Z,18.23
2018-06-11T21:41:10.862Z,18.53
2018-06-11T21:43:40.198Z,20.20
2018-06-11T21:46:09.869Z,20.60
2018-06-11T21:48:39.235Z,20.90
2018-06-11T21:51:08.517Z,21.00
2018-06-11T21:53:37.951Z,22.53
2018-06-11T21:56:07.564Z,23.07
2018-06-11T21:58:37.543Z,23.10
2018-06-11T22:01:06.869Z,23.47
2018-06-11T22:03:36.210Z,21.07
2018-06-11T22:06:05.550Z,18.43
2018-06-11T22:08:34.723Z,18.30
2018-06-11T22:11:03.951Z,19.13
2018-06-11T22:13:33.371Z,20.17
2018-06-11T22:16:02.924Z,20.10
2018-06-11T22:18:32.088Z,19.83
2018-06-11T22:21:01.155Z,20.43
2018-06-11T22:23:30.643Z,18.43
2018-06-11T22:25:59.746Z,18.50
2018-06-11T22:28:29.043Z,17.47
2018-06-11T22:30:58.627Z,19.57
2018-06-11T22:33:28.160Z,20.03
2018-06-11T22:35:57.543Z,17.83
2018-06-11T22:38:26.935Z,19.23
2018-06-11T22:40:56.307Z,19.03
2018-06-11T22:43:25.656Z,21.83
2018-06-11T22:45:54.916Z,21.03
2018-06-11T22:48:24.083Z,20.43
2018-06-11T22:50:53.623Z,19.27
2018-06-11T22:53:22.931Z,20.00
2018-06-11T22:55:52.003Z,19.43
2018-06-11T22:58:21.399Z,20.90
2018-06-11T23:00:50.928Z,20.30
2018-06-11T23:03:20.109Z,20.40
2018-06-11T23:05:49.696Z,19.33
2018-06-11T23:08:19.123Z,19.23
2018-06-11T23:10:48.508Z,19.03
2018-06-11T23:13:17.661Z,19.70
2018-06-11T23:15:46.838Z,19.27
2018-06-11T23:18:16.115Z,19.83
2018-06-11T23:20:45.292Z,19.23
2018-06-11T23:23:14.683Z,19.30
2018-06-11T23:25:43.759Z,18.57
2018-06-11T23:28:13.088Z,18.70
2018-06-11T23:30:42.329Z,18.07
2018-06-11T23:33:11.583Z,17.37
2018-06-11T23:35:41.052Z,17.20
2018-06-11T23:38:10.304Z,17.37
2018-06-11T23:40:40.009Z,17.20
2018-06-11T23:43:09.349Z,17.00
2018-06-11T23:45:38.838Z,17.23
2018-06-11T23:48:08.272Z,17.23
2018-06-11T23:50:37.692Z,17.03
2018-06-11T23:53:06.895Z,16.90
2018-06-11T23:55:36.161Z,18.77
2018-06-11T23:58:05.523Z,20.47
